Terminal Aerodrome Forecast
Issued by NWS Bismarck, ND

Home | Current Version | Previous Version | Graphics & Text | Print | Product List | Glossary On
Versions: 1 2 3 4 5 6 7 8 9 10 11 12 13 14 15 16 17 18 19 20 21 22 23 24 25
000
FTUS43 KBIS 201729
TAFBIS
TAF
KBIS 201729Z 2018/2118 VRB05KT 1SM BR OVC004
     FM202200 VRB03KT 1/2SM -FZDZ FG BKN003
     FM211300 VRB05KT 1SM -FZDZ BR OVC003=

USA.gov is the U.S. government's official web portal to all federal, state and local government web resources and services.